Terminal Aerodrome Forecast
Issued by NWS

Home | Current Version | Previous Version | Text Only | Print | Product List | Glossary On
Versions: 1 2 3 4 5 6 7 8 9 10 11 12 13 14 15 16 17 18 19 20 21
000
FTUS41 KGYX 020520
TAFPSM
TAF
KPSM 020520Z 0206/0306 03006KT 6SM -SHRA BR OVC007
     FM021300 02010KT P6SM OVC015
     FM021700 02009KT P6SM BKN120=

USA.gov is the U.S. government's official web portal to all federal, state and local government web resources and services.